createdAt,value
2018-05-25T00:00:44.881Z,1012.84
2018-05-25T00:01:44.891Z,1012.83
2018-05-25T00:03:38.858Z,1012.82
2018-05-25T00:04:38.354Z,1012.83
2018-05-25T00:06:32.825Z,1012.83
2018-05-25T00:07:32.797Z,1012.86
2018-05-25T00:09:28.746Z,1012.86
2018-05-25T00:10:28.756Z,1012.88
2018-05-25T00:12:24.687Z,1012.87
2018-05-25T00:13:25.208Z,1012.91
2018-05-25T00:15:19.155Z,1012.89
2018-05-25T00:16:19.151Z,1012.91
2018-05-25T00:18:12.628Z,1012.88
2018-05-25T00:19:12.613Z,1012.93
2018-05-25T00:21:06.022Z,1012.89
2018-05-25T00:22:06.025Z,1012.88
2018-05-25T00:24:00.499Z,1012.89
2018-05-25T00:25:00.494Z,1012.86
2018-05-25T00:26:54.932Z,1012.89
2018-05-25T00:27:55.447Z,1012.88
2018-05-25T00:29:49.405Z,1012.94
2018-05-25T00:30:49.394Z,1012.92
2018-05-25T00:32:45.374Z,1012.93
2018-05-25T00:33:45.342Z,1012.93
2018-05-25T00:35:39.799Z,1012.94
2018-05-25T00:36:39.795Z,1012.97
2018-05-25T00:38:34.747Z,1012.97
2018-05-25T00:39:35.760Z,1012.99
2018-05-25T00:41:29.209Z,1013.00
2018-05-25T00:42:28.659Z,1013.01
2018-05-25T00:44:23.631Z,1012.98
2018-05-25T00:45:23.131Z,1012.96
2018-05-25T00:47:17.581Z,1012.99
2018-05-25T00:48:17.585Z,1012.98
2018-05-25T00:50:12.044Z,1012.95
2018-05-25T00:51:12.035Z,1012.94
2018-05-25T00:53:06.484Z,1012.90
2018-05-25T00:54:06.481Z,1012.89
2018-05-25T00:56:00.959Z,1012.91
2018-05-25T00:57:00.949Z,1012.92
2018-05-25T00:58:55.905Z,1012.92
2018-05-25T00:59:55.418Z,1012.88
2018-05-25T01:01:50.348Z,1012.87
2018-05-25T01:02:49.844Z,1012.88
2018-05-25T01:04:45.317Z,1012.90
2018-05-25T01:05:44.300Z,1012.91
2018-05-25T01:07:37.756Z,1012.90
2018-05-25T01:08:38.682Z,1012.86
2018-05-25T01:10:31.715Z,1012.91
2018-05-25T01:11:31.302Z,1012.89
2018-05-25T01:13:24.672Z,1012.87
2018-05-25T01:14:25.681Z,1012.90
2018-05-25T01:16:20.572Z,1012.87
2018-05-25T01:17:19.145Z,1012.89
2018-05-25T01:19:13.585Z,1012.86
2018-05-25T01:20:13.596Z,1012.83
2018-05-25T01:22:08.053Z,1012.80
2018-05-25T01:23:07.045Z,1012.80
2018-05-25T01:25:02.993Z,1012.83
2018-05-25T01:26:03.002Z,1012.81
2018-05-25T01:27:57.480Z,1012.80
2018-05-25T01:28:57.449Z,1012.81
2018-05-25T01:30:50.926Z,1012.82
2018-05-25T01:31:50.861Z,1012.84
2018-05-25T01:33:46.817Z,1012.84
2018-05-25T01:34:47.329Z,1012.82
2018-05-25T01:36:41.276Z,1012.79
2018-05-25T01:37:41.273Z,1012.82
2018-05-25T01:39:34.731Z,1012.79
2018-05-25T01:40:34.724Z,1012.75
2018-05-25T01:42:28.184Z,1012.78
2018-05-25T01:43:28.687Z,1012.81
2018-05-25T01:45:23.162Z,1012.83
2018-05-25T01:46:22.647Z,1012.79
2018-05-25T01:48:18.096Z,1012.75
2018-05-25T01:49:17.079Z,1012.76
2018-05-25T01:51:12.045Z,1012.71
2018-05-25T01:52:11.506Z,1012.75
2018-05-25T01:54:05.976Z,1012.72
2018-05-25T01:55:05.957Z,1012.69
2018-05-25T01:57:01.945Z,1012.70
2018-05-25T01:58:01.918Z,1012.65
2018-05-25T01:59:56.379Z,1012.70
2018-05-25T02:00:56.384Z,1012.67
2018-05-25T02:02:52.317Z,1012.67
2018-05-25T02:03:52.319Z,1012.66
2018-05-25T02:05:46.282Z,1012.68
2018-05-25T02:06:45.781Z,1012.71
2018-05-25T02:08:39.740Z,1012.69
2018-05-25T02:09:39.237Z,1012.72
2018-05-25T02:11:35.200Z,1012.73
2018-05-25T02:12:35.152Z,1012.72
2018-05-25T02:14:30.158Z,1012.67
2018-05-25T02:15:29.585Z,1012.72
2018-05-25T02:17:25.550Z,1012.71
2018-05-25T02:18:25.548Z,1012.70
2018-05-25T02:20:19.006Z,1012.71
2018-05-25T02:21:19.507Z,1012.73
2018-05-25T02:23:13.445Z,1012.74
2018-05-25T02:24:13.455Z,1012.74
2018-05-25T02:26:09.417Z,1012.73
2018-05-25T02:27:09.400Z,1012.69
2018-05-25T02:29:04.369Z,1012.71
2018-05-25T02:30:03.873Z,1012.71
2018-05-25T02:32:00.828Z,1012.67
2018-05-25T02:33:00.328Z,1012.68
2018-05-25T02:34:53.277Z,1012.67
2018-05-25T02:35:53.272Z,1012.69
2018-05-25T02:37:48.235Z,1012.67
2018-05-25T02:38:48.661Z,1012.68
2018-05-25T02:40:41.188Z,1012.66
2018-05-25T02:41:41.184Z,1012.67
2018-05-25T02:43:38.147Z,1012.67
2018-05-25T02:44:37.652Z,1012.65
2018-05-25T02:46:30.617Z,1012.67
2018-05-25T02:47:30.623Z,1012.63
2018-05-25T02:49:25.092Z,1012.66
2018-05-25T02:50:26.076Z,1012.65
2018-05-25T02:52:20.045Z,1012.61
2018-05-25T02:53:19.558Z,1012.65
2018-05-25T02:55:14.497Z,1012.60
2018-05-25T02:56:13.994Z,1012.61
2018-05-25T02:58:08.482Z,1012.62
2018-05-25T02:59:08.443Z,1012.64
2018-05-25T03:01:02.865Z,1012.61
2018-05-25T03:02:02.850Z,1012.67
2018-05-25T03:03:57.330Z,1012.72
2018-05-25T03:04:57.305Z,1012.75
2018-05-25T03:06:53.286Z,1012.72
2018-05-25T03:07:53.764Z,1012.71
2018-05-25T03:09:46.735Z,1012.72
2018-05-25T03:10:46.699Z,1012.69
2018-05-25T03:12:42.693Z,1012.68
2018-05-25T03:13:43.170Z,1012.71
2018-05-25T03:15:37.142Z,1012.66
2018-05-25T03:16:37.130Z,1012.70
2018-05-25T03:18:31.085Z,1012.70
2018-05-25T03:19:30.568Z,1012.70
2018-05-25T03:21:25.543Z,1012.73
2018-05-25T03:22:25.042Z,1012.75
2018-05-25T03:24:19.966Z,1012.76
2018-05-25T03:25:19.444Z,1012.69
2018-05-25T03:27:15.907Z,1012.74
2018-05-25T03:28:15.391Z,1012.69
2018-05-25T03:30:10.843Z,1012.71
2018-05-25T03:31:10.854Z,1012.76
2018-05-25T03:33:04.331Z,1012.79
2018-05-25T03:34:05.298Z,1012.77
2018-05-25T03:36:00.287Z,1012.81
2018-05-25T03:37:00.763Z,1012.83
2018-05-25T03:38:54.744Z,1012.87
2018-05-25T03:39:54.720Z,1012.86
2018-05-25T03:41:48.183Z,1012.89
2018-05-25T03:42:48.179Z,1012.83
2018-05-25T03:44:43.128Z,1012.81
2018-05-25T03:45:42.607Z,1012.77
2018-05-25T03:47:36.062Z,1012.78
2018-05-25T03:48:36.090Z,1012.76
2018-05-25T03:50:32.033Z,1012.83
2018-05-25T03:51:32.527Z,1012.81
2018-05-25T03:53:25.978Z,1012.82
2018-05-25T03:54:26.487Z,1012.83
2018-05-25T03:56:19.937Z,1012.86
2018-05-25T03:57:19.938Z,1012.83
2018-05-25T03:59:15.391Z,1012.87
2018-05-25T04:00:14.388Z,1012.86
2018-05-25T04:02:10.363Z,1012.86
2018-05-25T04:03:10.351Z,1012.91
2018-05-25T04:05:05.299Z,1012.91
2018-05-25T04:06:04.808Z,1012.93
2018-05-25T04:08:00.191Z,1012.96
2018-05-25T04:09:00.251Z,1012.97
2018-05-25T04:10:55.190Z,1012.97
2018-05-25T04:11:55.180Z,1012.98
2018-05-25T04:13:51.158Z,1013.00
2018-05-25T04:14:51.155Z,1012.97
2018-05-25T04:16:45.626Z,1012.91
2018-05-25T04:17:45.595Z,1013.02
2018-05-25T04:19:40.035Z,1013.03
2018-05-25T04:20:40.057Z,1012.98
2018-05-25T04:22:34.999Z,1013.05
2018-05-25T04:23:34.494Z,1013.00
2018-05-25T04:25:30.482Z,1013.04
2018-05-25T04:26:30.444Z,1013.06
2018-05-25T04:28:24.927Z,1013.03
2018-05-25T04:29:24.901Z,1013.02
2018-05-25T04:31:18.399Z,1013.04
2018-05-25T04:32:18.302Z,1013.03
2018-05-25T04:34:11.781Z,1013.04
2018-05-25T04:35:11.782Z,1013.08
2018-05-25T04:37:06.737Z,1013.08
2018-05-25T04:38:06.229Z,1013.11
2018-05-25T04:40:02.204Z,1013.08
2018-05-25T04:41:02.175Z,1013.10
2018-05-25T04:42:56.655Z,1013.12
2018-05-25T04:43:56.609Z,1013.18
2018-05-25T04:45:52.596Z,1013.11
2018-05-25T04:46:52.599Z,1013.10
2018-05-25T04:48:48.514Z,1013.08
2018-05-25T04:49:48.536Z,1013.12
2018-05-25T04:51:44.455Z,1013.12
2018-05-25T04:52:44.454Z,1013.17
2018-05-25T04:54:40.924Z,1013.20
2018-05-25T04:55:40.927Z,1013.22
2018-05-25T04:57:35.374Z,1013.22
2018-05-25T04:58:34.859Z,1013.23
2018-05-25T05:00:30.853Z,1013.22
2018-05-25T05:01:31.826Z,1013.24
2018-05-25T05:03:26.734Z,1013.28
2018-05-25T05:04:25.296Z,1013.29
2018-05-25T05:06:21.277Z,1013.31
2018-05-25T05:07:21.260Z,1013.32
2018-05-25T05:09:17.229Z,1013.25
2018-05-25T05:10:18.226Z,1013.23
2018-05-25T05:12:11.667Z,1013.28
2018-05-25T05:13:13.209Z,1013.32
2018-05-25T05:15:09.131Z,1013.30
2018-05-25T05:16:06.141Z,1013.32
2018-05-25T05:18:00.628Z,1013.33
2018-05-25T05:19:00.610Z,1013.34
2018-05-25T05:20:56.513Z,1013.29
2018-05-25T05:21:56.567Z,1013.30
2018-05-25T05:23:53.480Z,1013.31
2018-05-25T05:24:52.505Z,1013.28
2018-05-25T05:26:47.000Z,1013.29
2018-05-25T05:27:48.448Z,1013.29
2018-05-25T05:29:40.417Z,1013.36
2018-05-25T05:30:41.408Z,1013.37
2018-05-25T05:32:36.381Z,1013.35
2018-05-25T05:33:36.393Z,1013.33
2018-05-25T05:35:29.817Z,1013.33
2018-05-25T05:36:29.805Z,1013.32
2018-05-25T05:38:25.763Z,1013.29
2018-05-25T05:39:25.765Z,1013.29
2018-05-25T05:41:21.746Z,1013.31
2018-05-25T05:42:22.217Z,1013.32
2018-05-25T05:44:17.670Z,1013.33
2018-05-25T05:45:17.664Z,1013.37
2018-05-25T05:47:12.110Z,1013.29
2018-05-25T05:48:12.117Z,1013.33
2018-05-25T05:50:06.576Z,1013.39
2018-05-25T05:51:06.571Z,1013.35
2018-05-25T05:53:01.041Z,1013.41
2018-05-25T05:54:01.026Z,1013.37
2018-05-25T05:55:55.497Z,1013.39
2018-05-25T05:56:55.987Z,1013.44
2018-05-25T05:58:52.447Z,1013.45
2018-05-25T05:59:51.944Z,1013.45
2018-05-25T06:01:45.935Z,1013.44
2018-05-25T06:02:45.893Z,1013.48
2018-05-25T06:04:40.344Z,1013.44
2018-05-25T06:05:40.354Z,1013.49
2018-05-25T06:07:36.315Z,1013.49
2018-05-25T06:08:34.778Z,1013.46
2018-05-25T06:10:29.754Z,1013.55
2018-05-25T06:11:29.247Z,1013.51
2018-05-25T06:13:25.711Z,1013.50
2018-05-25T06:14:25.201Z,1013.55
2018-05-25T06:16:22.162Z,1013.51
2018-05-25T06:17:21.154Z,1013.54
2018-05-25T06:19:16.692Z,1013.54
2018-05-25T06:20:15.609Z,1013.56
2018-05-25T06:22:09.068Z,1013.59
2018-05-25T06:23:09.058Z,1013.60
2018-05-25T06:25:03.054Z,1013.58
2018-05-25T06:26:02.521Z,1013.59
2018-05-25T06:28:00.485Z,1013.59
2018-05-25T06:28:58.991Z,1013.58
2018-05-25T06:30:54.477Z,1013.57
2018-05-25T06:31:55.367Z,1013.58
2018-05-25T06:33:48.877Z,1013.62
2018-05-25T06:34:48.889Z,1013.60
2018-05-25T06:36:45.765Z,1013.59
2018-05-25T06:37:44.800Z,1013.62
2018-05-25T06:39:40.790Z,1013.65
2018-05-25T06:40:41.775Z,1013.63
2018-05-25T06:42:35.275Z,1013.62
2018-05-25T06:43:35.768Z,1013.61
2018-05-25T06:45:31.695Z,1013.64
2018-05-25T06:46:29.690Z,1013.65
2018-05-25T06:48:26.655Z,1013.68
2018-05-25T06:49:26.647Z,1013.64
2018-05-25T06:51:23.125Z,1013.61
2018-05-25T06:52:21.589Z,1013.64
2018-05-25T06:54:17.569Z,1013.65
2018-05-25T06:55:17.570Z,1013.65
2018-05-25T06:57:12.034Z,1013.64
2018-05-25T06:58:11.025Z,1013.65
2018-05-25T07:00:07.008Z,1013.69
2018-05-25T07:01:07.479Z,1013.66
2018-05-25T07:03:02.979Z,1013.60
2018-05-25T07:04:02.974Z,1013.63
2018-05-25T07:05:58.922Z,1013.61
2018-05-25T07:06:58.947Z,1013.60
2018-05-25T07:08:55.433Z,1013.60
2018-05-25T07:09:54.914Z,1013.61
2018-05-25T07:11:50.862Z,1013.58
2018-05-25T07:12:51.354Z,1013.63
2018-05-25T07:14:46.821Z,1013.66
2018-05-25T07:15:48.300Z,1013.67
2018-05-25T07:17:43.280Z,1013.70
2018-05-25T07:18:44.266Z,1013.74
2018-05-25T07:20:39.716Z,1013.76
2018-05-25T07:21:38.745Z,1013.74
2018-05-25T07:23:36.671Z,1013.79
2018-05-25T07:24:34.680Z,1013.80
2018-05-25T07:26:30.637Z,1013.82
2018-05-25T07:27:31.635Z,1013.83
2018-05-25T07:29:27.140Z,1013.87
2018-05-25T07:30:27.617Z,1013.86
2018-05-25T07:32:24.089Z,1013.83
2018-05-25T07:33:22.591Z,1013.85
2018-05-25T07:35:19.066Z,1013.91
2018-05-25T07:36:19.044Z,1013.88
2018-05-25T07:38:12.022Z,1013.93
2018-05-25T07:39:12.012Z,1013.87
2018-05-25T07:41:07.976Z,1013.95
2018-05-25T07:42:09.465Z,1013.93
2018-05-25T07:44:03.889Z,1014.00
2018-05-25T07:45:03.947Z,1013.97
2018-05-25T07:46:59.854Z,1013.97
2018-05-25T07:47:59.853Z,1013.94
2018-05-25T07:49:56.328Z,1013.92
2018-05-25T07:50:55.814Z,1013.94
2018-05-25T07:52:59.768Z,1013.94
2018-05-25T07:53:57.784Z,1013.90
2018-05-25T07:55:52.754Z,1013.90
2018-05-25T07:56:53.253Z,1013.93
2018-05-25T07:58:49.155Z,1013.87
2018-05-25T07:59:48.236Z,1013.87
2018-05-25T08:01:44.727Z,1013.90
2018-05-25T08:02:44.154Z,1013.94
2018-05-25T08:04:40.646Z,1013.88
2018-05-25T08:05:40.127Z,1013.87
2018-05-25T08:07:37.097Z,1013.92
2018-05-25T08:08:36.100Z,1013.89
2018-05-25T08:10:40.235Z,1013.89
2018-05-25T08:11:41.062Z,1013.91
2018-05-25T08:13:36.189Z,1013.91
2018-05-25T08:14:36.200Z,1013.90
2018-05-25T08:16:34.195Z,1013.91
2018-05-25T08:17:34.232Z,1013.88
2018-05-25T08:19:30.635Z,1013.89
2018-05-25T08:20:30.159Z,1013.87
2018-05-25T08:22:29.659Z,1013.89
2018-05-25T08:23:29.100Z,1013.91
2018-05-25T08:25:25.210Z,1013.93
2018-05-25T08:26:24.765Z,1013.97
2018-05-25T08:28:22.177Z,1013.94
2018-05-25T08:29:22.219Z,1013.87
2018-05-25T08:31:19.723Z,1013.85
2018-05-25T08:32:19.665Z,1013.86
2018-05-25T08:34:17.094Z,1013.84
2018-05-25T08:35:18.011Z,1013.87
2018-05-25T08:37:14.067Z,1013.89
2018-05-25T08:38:13.584Z,1013.91
2018-05-25T08:40:09.064Z,1013.88
2018-05-25T08:41:09.021Z,1013.86
2018-05-25T08:43:07.483Z,1013.92
2018-05-25T08:44:06.977Z,1013.89
2018-05-25T08:46:05.439Z,1013.91
2018-05-25T08:47:05.113Z,1013.89
2018-05-25T08:49:02.573Z,1013.91
2018-05-25T08:50:02.068Z,1013.94
2018-05-25T08:51:58.058Z,1013.93
2018-05-25T08:52:59.042Z,1013.90
2018-05-25T08:54:53.998Z,1013.95
2018-05-25T08:55:54.024Z,1013.92
2018-05-25T08:57:53.483Z,1013.91
2018-05-25T08:58:52.197Z,1013.90
2018-05-25T09:00:49.659Z,1013.89
2018-05-25T09:01:49.653Z,1013.86
2018-05-25T09:03:44.085Z,1013.84
2018-05-25T09:06:02.981Z,1013.85
2018-05-25T09:07:04.040Z,1013.84
2018-05-25T09:08:58.031Z,1013.87
2018-05-25T09:09:58.032Z,1013.87
2018-05-25T09:11:52.509Z,1013.88
2018-05-25T09:12:53.494Z,1013.87
2018-05-25T09:14:48.494Z,1013.83
2018-05-25T09:15:48.467Z,1013.84
2018-05-25T09:17:43.441Z,1013.84
2018-05-25T09:18:41.998Z,1013.79
2018-05-25T09:20:36.467Z,1013.86
2018-05-25T09:21:38.477Z,1013.82
2018-05-25T09:23:33.945Z,1013.87
2018-05-25T09:24:33.434Z,1013.91
2018-05-25T09:26:29.930Z,1013.89
2018-05-25T09:27:29.425Z,1013.87
2018-05-25T09:29:24.453Z,1013.86
2018-05-25T09:30:24.471Z,1013.82
2018-05-25T09:32:17.938Z,1013.88
2018-05-25T09:33:18.914Z,1013.89
2018-05-25T09:35:13.897Z,1013.88
2018-05-25T09:36:13.909Z,1013.87
2018-05-25T09:38:12.379Z,1013.85
2018-05-25T09:39:10.891Z,1013.85
2018-05-25T09:41:07.376Z,1013.80
2018-05-25T09:42:07.300Z,1013.81
2018-05-25T09:44:01.930Z,1013.79
2018-05-25T09:45:02.728Z,1013.79
2018-05-25T09:46:58.833Z,1013.86
2018-05-25T09:49:13.841Z,1013.87
2018-05-25T09:50:13.845Z,1013.86
2018-05-25T09:52:09.809Z,1013.88
2018-05-25T09:53:09.808Z,1013.88
2018-05-25T09:55:06.773Z,1013.86
2018-05-25T09:57:21.741Z,1013.90
2018-05-25T09:58:22.233Z,1013.88
2018-05-25T10:00:18.696Z,1013.89
2018-05-25T10:01:18.704Z,1013.92
2018-05-25T10:03:15.227Z,1013.87
2018-05-25T10:04:13.710Z,1013.83
2018-05-25T10:06:10.687Z,1013.78
2018-05-25T10:07:09.705Z,1013.76
2018-05-25T10:09:07.714Z,1013.77
2018-05-25T10:10:06.671Z,1013.75
2018-05-25T10:12:00.182Z,1013.82
2018-05-25T10:13:00.180Z,1013.77
2018-05-25T10:14:56.705Z,1013.74
2018-05-25T10:15:57.149Z,1013.74
2018-05-25T10:17:53.168Z,1013.71
2018-05-25T10:18:53.140Z,1013.70
2018-05-25T10:20:45.633Z,1013.67
2018-05-25T10:21:46.125Z,1013.67
2018-05-25T10:23:42.106Z,1013.64
2018-05-25T10:26:37.567Z,1013.66
2018-05-25T10:27:38.568Z,1013.69
2018-05-25T10:29:31.537Z,1013.64
2018-05-25T10:30:31.048Z,1013.63
2018-05-25T10:32:27.021Z,1013.67
2018-05-25T10:33:26.996Z,1013.64
2018-05-25T10:35:22.973Z,1013.66
2018-05-25T10:36:22.957Z,1013.65
2018-05-25T10:38:19.453Z,1013.68
2018-05-25T10:39:18.941Z,1013.61
2018-05-25T10:41:15.491Z,1013.63
2018-05-25T10:42:15.412Z,1013.57
2018-05-25T10:44:12.839Z,1013.59
2018-05-25T10:45:12.837Z,1013.60
2018-05-25T10:47:09.324Z,1013.62
2018-05-25T10:48:09.815Z,1013.63
2018-05-25T10:50:05.316Z,1013.59
2018-05-25T10:51:05.320Z,1013.61
2018-05-25T10:53:00.782Z,1013.60
2018-05-25T10:53:59.281Z,1013.59
2018-05-25T10:55:56.800Z,1013.60
2018-05-25T10:58:11.271Z,1013.57
2018-05-25T10:59:11.230Z,1013.54
2018-05-25T11:01:08.201Z,1013.60
2018-05-25T11:02:08.727Z,1013.58
2018-05-25T11:04:06.163Z,1013.57
2018-05-25T11:05:06.147Z,1013.52
2018-05-25T11:07:01.111Z,1013.52
2018-05-25T11:08:01.116Z,1013.49
2018-05-25T11:09:57.117Z,1013.52
2018-05-25T11:10:57.096Z,1013.58
2018-05-25T11:12:54.557Z,1013.52
2018-05-25T11:13:53.060Z,1013.55
2018-05-25T11:15:48.028Z,1013.58
2018-05-25T11:16:47.524Z,1013.55
2018-05-25T11:18:43.525Z,1013.49
2018-05-25T11:19:43.514Z,1013.50
2018-05-25T11:21:39.981Z,1013.58
2018-05-25T11:22:39.442Z,1013.52
2018-05-25T11:24:35.439Z,1013.55
2018-05-25T11:25:35.427Z,1013.55
2018-05-25T11:27:31.399Z,1013.54
2018-05-25T11:28:31.401Z,1013.51
2018-05-25T11:30:28.855Z,1013.52
2018-05-25T11:31:28.360Z,1013.52
2018-05-25T11:33:23.364Z,1013.50
2018-05-25T11:34:23.370Z,1013.52
2018-05-25T11:36:19.339Z,1013.48
2018-05-25T11:37:19.339Z,1013.47
2018-05-25T11:39:14.339Z,1013.42
2018-05-25T11:40:14.811Z,1013.38
2018-05-25T11:42:08.342Z,1013.32
2018-05-25T11:43:09.311Z,1013.37
2018-05-25T11:45:03.334Z,1013.35
2018-05-25T11:46:02.854Z,1013.34
2018-05-25T11:47:58.774Z,1013.33
2018-05-25T11:48:58.804Z,1013.30
2018-05-25T11:50:53.761Z,1013.29
2018-05-25T11:51:53.762Z,1013.29
2018-05-25T11:53:49.219Z,1013.29
2018-05-25T11:54:49.208Z,1013.29
2018-05-25T11:56:43.686Z,1013.28
2018-05-25T11:57:45.173Z,1013.27
2018-05-25T11:59:39.642Z,1013.30
2018-05-25T12:00:40.635Z,1013.28
2018-05-25T12:02:37.043Z,1013.30
2018-05-25T12:03:35.617Z,1013.27
2018-05-25T12:05:32.504Z,1013.26
2018-05-25T12:06:31.648Z,1013.24
2018-05-25T12:08:29.535Z,1013.28
2018-05-25T12:09:29.557Z,1013.30
2018-05-25T12:11:25.500Z,1013.30
2018-05-25T12:12:25.507Z,1013.33
2018-05-25T12:14:21.492Z,1013.36
2018-05-25T12:15:21.486Z,1013.37
2018-05-25T12:17:17.443Z,1013.34
2018-05-25T12:18:17.455Z,1013.36
2018-05-25T12:20:14.421Z,1013.30
2018-05-25T12:21:14.454Z,1013.30
2018-05-25T12:23:10.400Z,1013.27
2018-05-25T12:24:09.476Z,1013.31
2018-05-25T12:26:05.437Z,1013.25
2018-05-25T12:28:22.930Z,1013.22
2018-05-25T12:29:21.406Z,1013.21
2018-05-25T12:31:17.883Z,1013.23
2018-05-25T12:32:17.397Z,1013.23
2018-05-25T12:34:13.305Z,1013.25
2018-05-25T12:35:13.312Z,1013.26
2018-05-25T12:37:09.275Z,1013.27
2018-05-25T12:38:09.271Z,1013.27
2018-05-25T12:40:04.229Z,1013.25
2018-05-25T12:41:05.727Z,1013.29
2018-05-25T12:42:59.723Z,1013.27
2018-05-25T12:45:55.185Z,1013.24
2018-05-25T12:46:54.689Z,1013.23
2018-05-25T12:48:53.947Z,1013.20
2018-05-25T12:54:08.347Z,1013.27
2018-05-25T12:56:58.297Z,1013.28
2018-05-25T12:57:56.364Z,1013.28
2018-05-25T12:59:53.323Z,1013.25
2018-05-25T13:00:52.365Z,1013.24
2018-05-25T13:02:48.291Z,1013.25
2018-05-25T13:03:49.289Z,1013.22
2018-05-25T13:05:44.251Z,1013.27
2018-05-25T13:08:40.240Z,1013.31
2018-05-25T13:09:40.236Z,1013.28
2018-05-25T13:11:36.203Z,1013.28
2018-05-25T13:12:34.691Z,1013.28
2018-05-25T13:14:30.172Z,1013.23
2018-05-25T13:15:30.150Z,1013.23
2018-05-25T13:17:25.687Z,1013.20
2018-05-25T13:18:25.140Z,1013.15
2018-05-25T13:20:21.126Z,1013.15
2018-05-25T13:21:22.105Z,1013.15
2018-05-25T13:23:18.603Z,1013.17
2018-05-25T13:25:33.579Z,1013.13
2018-05-25T13:26:33.553Z,1013.13
2018-05-25T13:28:29.023Z,1013.10
2018-05-25T13:29:30.009Z,1013.10
2018-05-25T13:31:25.980Z,1013.12
2018-05-25T13:32:26.421Z,1013.10
2018-05-25T13:34:20.960Z,1013.09
2018-05-25T13:35:21.927Z,1013.07
2018-05-25T13:37:17.409Z,1013.09
2018-05-25T13:38:17.402Z,1013.07
2018-05-25T13:40:12.890Z,1013.05
2018-05-25T13:41:12.868Z,1013.02
2018-05-25T13:43:08.834Z,1012.98
2018-05-25T13:44:08.844Z,1013.01
2018-05-25T13:46:04.817Z,1012.96
2018-05-25T13:47:04.812Z,1013.00
2018-05-25T13:49:05.293Z,1012.97
2018-05-25T13:50:06.265Z,1012.96
2018-05-25T13:52:06.267Z,1012.93
2018-05-25T13:53:06.753Z,1012.92
2018-05-25T13:55:02.733Z,1012.92
2018-05-25T13:56:02.757Z,1012.93
2018-05-25T13:57:58.217Z,1012.96
2018-05-25T13:58:57.738Z,1012.94
2018-05-25T14:00:55.703Z,1012.93
2018-05-25T14:01:55.772Z,1012.93
2018-05-25T14:03:53.765Z,1012.85
2018-05-25T14:04:53.669Z,1012.91
2018-05-25T14:06:49.677Z,1012.93
2018-05-25T14:07:49.664Z,1012.96
2018-05-25T14:09:47.647Z,1012.95
2018-05-25T14:10:47.642Z,1012.93
2018-05-25T14:12:44.639Z,1012.92
2018-05-25T14:13:43.647Z,1012.92
2018-05-25T14:15:39.581Z,1012.91
2018-05-25T14:16:39.579Z,1012.95
2018-05-25T14:18:35.621Z,1012.96
2018-05-25T14:20:51.726Z,1012.99
2018-05-25T14:21:51.485Z,1013.04
2018-05-25T14:23:47.491Z,1013.03
2018-05-25T14:24:47.474Z,1013.01
2018-05-25T14:26:44.463Z,1012.96
2018-05-25T14:28:59.948Z,1012.90
2018-05-25T14:30:00.444Z,1012.87
2018-05-25T14:31:55.434Z,1012.88
2018-05-25T14:32:55.414Z,1012.92
2018-05-25T14:34:53.387Z,1012.93
2018-05-25T14:37:08.897Z,1012.97
2018-05-25T14:38:07.422Z,1012.94
2018-05-25T14:40:05.791Z,1013.01
2018-05-25T14:41:04.354Z,1012.96
2018-05-25T14:43:01.898Z,1013.00
2018-05-25T14:44:01.552Z,1013.01
2018-05-25T14:46:04.566Z,1012.95
2018-05-25T14:46:59.505Z,1012.92
2018-05-25T14:48:56.479Z,1012.91
2018-05-25T14:49:56.482Z,1012.86
2018-05-25T14:51:55.984Z,1012.89
2018-05-25T14:52:51.477Z,1012.89
2018-05-25T14:54:49.591Z,1012.88
2018-05-25T14:55:50.443Z,1012.86
2018-05-25T14:57:46.610Z,1012.91
2018-05-25T14:58:46.519Z,1012.90
2018-05-25T15:00:42.606Z,1012.91
2018-05-25T15:01:41.672Z,1012.97
2018-05-25T15:03:38.633Z,1012.97
2018-05-25T15:05:55.581Z,1012.96
2018-05-25T15:06:54.604Z,1012.95
2018-05-25T15:09:15.575Z,1013.01
2018-05-25T15:10:13.074Z,1013.01
2018-05-25T15:12:11.303Z,1012.91
2018-05-25T15:13:11.383Z,1012.92
2018-05-25T15:15:09.947Z,1012.91
2018-05-25T15:16:10.459Z,1012.84
2018-05-25T15:18:07.420Z,1012.91
2018-05-25T15:19:07.427Z,1012.91
2018-05-25T15:21:04.755Z,1012.82
2018-05-25T15:22:04.554Z,1012.89
2018-05-25T15:24:03.160Z,1013.00
2018-05-25T15:25:02.530Z,1013.04
2018-05-25T15:27:01.045Z,1012.92
2018-05-25T15:28:00.509Z,1012.86
2018-05-25T15:29:59.005Z,1012.91
2018-05-25T15:30:58.681Z,1012.89
2018-05-25T15:32:58.141Z,1012.82
2018-05-25T15:33:56.844Z,1012.81
2018-05-25T15:35:54.887Z,1012.80
2018-05-25T15:36:54.792Z,1012.78
2018-05-25T15:38:53.722Z,1012.72
2018-05-25T15:39:53.620Z,1012.73
2018-05-25T15:41:50.139Z,1012.71
2018-05-25T15:42:49.611Z,1012.77
2018-05-25T15:44:45.596Z,1012.77
2018-05-25T15:45:46.589Z,1012.77
2018-05-25T15:47:42.577Z,1012.73
2018-05-25T15:48:42.433Z,1012.69
2018-05-25T15:50:42.908Z,1012.69
2018-05-25T15:51:42.902Z,1012.67
2018-05-25T15:53:39.393Z,1012.63
2018-05-25T15:54:38.857Z,1012.63
2018-05-25T15:56:35.354Z,1012.72
2018-05-25T15:57:35.362Z,1012.75
2018-05-25T15:59:36.316Z,1012.76
2018-05-25T16:00:36.303Z,1012.82
2018-05-25T16:02:33.373Z,1012.75
2018-05-25T16:03:34.333Z,1012.74
2018-05-25T16:05:31.352Z,1012.68
2018-05-25T16:06:31.481Z,1012.64
2018-05-25T16:08:29.537Z,1012.63
2018-05-25T16:09:30.307Z,1012.63
2018-05-25T16:11:27.980Z,1012.70
2018-05-25T16:12:27.448Z,1012.67
2018-05-25T16:14:25.588Z,1012.55
2018-05-25T16:15:25.593Z,1012.57
2018-05-25T16:17:22.600Z,1012.51
2018-05-25T16:18:22.566Z,1012.50
2018-05-25T16:20:17.539Z,1012.49
2018-05-25T16:21:17.060Z,1012.46
2018-05-25T16:23:15.019Z,1012.47
2018-05-25T16:24:14.996Z,1012.45
2018-05-25T16:26:13.243Z,1012.42
2018-05-25T16:27:14.013Z,1012.39
2018-05-25T16:29:09.703Z,1012.40
2018-05-25T16:30:10.060Z,1012.43
2018-05-25T16:32:08.615Z,1012.42
2018-05-25T16:33:07.274Z,1012.44
2018-05-25T16:35:06.272Z,1012.43
2018-05-25T16:36:05.548Z,1012.40
2018-05-25T16:38:01.418Z,1012.41
2018-05-25T16:39:02.335Z,1012.40
2018-05-25T16:40:59.904Z,1012.32
2018-05-25T16:41:59.551Z,1012.30
2018-05-25T16:43:57.596Z,1012.34
2018-05-25T16:44:58.528Z,1012.32
2018-05-25T16:46:59.026Z,1012.28
2018-05-25T16:47:56.506Z,1012.23
2018-05-25T16:49:53.658Z,1012.25
2018-05-25T16:50:53.700Z,1012.25
2018-05-25T16:52:54.158Z,1012.25
2018-05-25T16:53:54.136Z,1012.27
2018-05-25T16:55:51.597Z,1012.26
2018-05-25T16:56:50.618Z,1012.26
2018-05-25T16:58:46.109Z,1012.21
2018-05-25T16:59:46.080Z,1012.22
2018-05-25T17:01:42.565Z,1012.19
2018-05-25T17:02:42.543Z,1012.20
2018-05-25T17:04:42.529Z,1012.22
2018-05-25T17:05:43.530Z,1012.21
2018-05-25T17:07:38.542Z,1012.28
2018-05-25T17:08:38.496Z,1012.27
2018-05-25T17:10:37.586Z,1012.30
2018-05-25T17:11:36.716Z,1012.31
2018-05-25T17:13:35.185Z,1012.33
2018-05-25T17:14:34.803Z,1012.35
2018-05-25T17:16:31.277Z,1012.35
2018-05-25T17:17:30.776Z,1012.36
2018-05-25T17:19:26.730Z,1012.35
2018-05-25T17:20:28.296Z,1012.34
2018-05-25T17:22:22.683Z,1012.33
2018-05-25T17:23:24.254Z,1012.34
2018-05-25T17:25:21.695Z,1012.34
2018-05-25T17:26:20.844Z,1012.34
2018-05-25T17:28:17.311Z,1012.34
2018-05-25T17:31:17.304Z,1012.37
2018-05-25T17:32:17.824Z,1012.35
2018-05-25T17:34:15.515Z,1012.41
2018-05-25T17:35:17.263Z,1012.42
2018-05-25T17:37:17.951Z,1012.41
2018-05-25T17:38:16.020Z,1012.41
2018-05-25T17:40:14.079Z,1012.44
2018-05-25T17:41:14.123Z,1012.43
2018-05-25T17:43:11.078Z,1012.42
2018-05-25T17:44:11.603Z,1012.43
2018-05-25T17:46:07.569Z,1012.44
2018-05-25T17:47:07.508Z,1012.48
2018-05-25T17:49:03.502Z,1012.48
2018-05-25T17:50:02.988Z,1012.51
2018-05-25T17:52:01.491Z,1012.48
2018-05-25T17:53:01.928Z,1012.49
2018-05-25T17:55:02.671Z,1012.49
2018-05-25T17:56:02.594Z,1012.48
2018-05-25T17:58:03.071Z,1012.54
2018-05-25T17:59:03.552Z,1012.52
2018-05-25T18:01:01.189Z,1012.55
2018-05-25T18:02:01.195Z,1012.54